MSR752 LHBP-HECA
Flight info
| Callsign | MSR752 |
|---|---|
| Flight time | 2h 48m |
| Altitude | 35000 |
| Route | FAHAZ DCT KEROP DCT TISAK DCT RAXAD DCT RUGAS DCT KOROS DCT KUMBI L612 BLT A16 CVO |
| Aircraft | B738/M-SDE2E3FGHIRWXY/LB1 |
Departure
| Time | 2026-05-04 11:46 |
|---|---|
| Airport | Budapest Liszt Ferenc International Airport (LHBP) |
Arrival
| Time | 2026-05-04 14:34 |
|---|---|
| Airport | Cairo International Airport (HECA) |
| Time | Latitude | Longitude | Altitude | Speed | Heading |
|---|---|---|---|---|---|
| 2026-05-04 11:26 | 47.43140 | 19.25922 | 456 ft | 0 kts | 43° |
| 2026-05-04 11:37 | 47.43139 | 19.25920 | 456 ft | 2 kts | 43° |
| 2026-05-04 11:37 | 47.43120 | 19.25896 | 472 ft | 4 kts | 38° |
| 2026-05-04 11:37 | 47.43098 | 19.25874 | 453 ft | 4 kts | 23° |
| 2026-05-04 11:37 | 47.43075 | 19.25867 | 454 ft | 4 kts | 332° |
| 2026-05-04 11:38 | 47.43069 | 19.25873 | 455 ft | 0 kts | 313° |
| 2026-05-04 11:41 | 47.43086 | 19.25846 | 455 ft | 8 kts | 313° |
| 2026-05-04 11:41 | 47.43142 | 19.25756 | 456 ft | 15 kts | 313° |
| 2026-05-04 11:41 | 47.43215 | 19.25639 | 456 ft | 15 kts | 312° |
| 2026-05-04 11:41 | 47.43285 | 19.25527 | 455 ft | 15 kts | 313° |
| 2026-05-04 11:42 | 47.43357 | 19.25432 | 456 ft | 14 kts | 347° |
| 2026-05-04 11:42 | 47.43433 | 19.25507 | 456 ft | 13 kts | 44° |
| 2026-05-04 11:42 | 47.43500 | 19.25598 | 456 ft | 13 kts | 42° |
| 2026-05-04 11:42 | 47.43566 | 19.25685 | 456 ft | 13 kts | 42° |
| 2026-05-04 11:43 | 47.43630 | 19.25771 | 456 ft | 12 kts | 42° |
| 2026-05-04 11:43 | 47.43697 | 19.25861 | 456 ft | 14 kts | 42° |
| 2026-05-04 11:43 | 47.43776 | 19.25966 | 456 ft | 16 kts | 42° |
| 2026-05-04 11:43 | 47.43860 | 19.26079 | 457 ft | 16 kts | 42° |
| 2026-05-04 11:44 | 47.43940 | 19.26188 | 457 ft | 15 kts | 42° |
| 2026-05-04 11:44 | 47.44018 | 19.26292 | 459 ft | 15 kts | 42° |
| 2026-05-04 11:44 | 47.44068 | 19.26418 | 469 ft | 14 kts | 80° |
| 2026-05-04 11:44 | 47.44082 | 19.26499 | 468 ft | 3 kts | 110° |
| 2026-05-04 11:45 | 47.44062 | 19.26533 | 469 ft | 12 kts | 131° |
| 2026-05-04 11:45 | 47.43844 | 19.26885 | 471 ft | 81 kts | 132° |
| 2026-05-04 11:45 | 47.43317 | 19.27735 | 464 ft | 142 kts | 133° |
| 2026-05-04 11:45 | 47.42562 | 19.28957 | 723 ft | 170 kts | 134° |
| 2026-05-04 11:46 | 47.41755 | 19.30307 | 1319 ft | 183 kts | 124° |
| 2026-05-04 11:46 | 47.41175 | 19.32072 | 1940 ft | 194 kts | 122° |
| 2026-05-04 11:46 | 47.40517 | 19.33854 | 2509 ft | 208 kts | 122° |
| 2026-05-04 11:46 | 47.39777 | 19.35840 | 2728 ft | 231 kts | 122° |
| 2026-05-04 11:47 | 47.38975 | 19.37952 | 3228 ft | 240 kts | 122° |
| 2026-05-04 11:47 | 47.37996 | 19.39986 | 3700 ft | 251 kts | 145° |
| 2026-05-04 11:47 | 47.36383 | 19.40891 | 4270 ft | 254 kts | 179° |
| 2026-05-04 11:47 | 47.34687 | 19.40388 | 5169 ft | 249 kts | 207° |
| 2026-05-04 11:48 | 47.33364 | 19.38781 | 5923 ft | 255 kts | 231° |
| 2026-05-04 11:48 | 47.32369 | 19.36551 | 6570 ft | 265 kts | 239° |
| 2026-05-04 11:48 | 47.31471 | 19.34167 | 7321 ft | 267 kts | 240° |
| 2026-05-04 11:48 | 47.30572 | 19.31722 | 7979 ft | 275 kts | 239° |
| 2026-05-04 11:49 | 47.29953 | 19.30047 | 8505 ft | 276 kts | 239° |
| 2026-05-04 11:49 | 47.28711 | 19.26735 | 9463 ft | 283 kts | 239° |
| 2026-05-04 11:49 | 47.27746 | 19.24191 | 10214 ft | 285 kts | 239° |
| 2026-05-04 11:49 | 47.26747 | 19.21574 | 10522 ft | 305 kts | 239° |
| 2026-05-04 11:50 | 47.25663 | 19.18753 | 10705 ft | 327 kts | 238° |
| 2026-05-04 11:50 | 47.24510 | 19.15759 | 11060 ft | 341 kts | 238° |
| 2026-05-04 11:50 | 47.23336 | 19.12713 | 11732 ft | 345 kts | 238° |
| 2026-05-04 11:50 | 47.22140 | 19.09619 | 12330 ft | 350 kts | 239° |
| 2026-05-04 11:51 | 47.20917 | 19.06491 | 13010 ft | 354 kts | 237° |
| 2026-05-04 11:51 | 47.19270 | 19.03838 | 13691 ft | 355 kts | 214° |
| 2026-05-04 11:51 | 47.17041 | 19.02324 | 14333 ft | 355 kts | 193° |
| 2026-05-04 11:51 | 47.14587 | 19.01979 | 14910 ft | 358 kts | 177° |
| 2026-05-04 11:52 | 47.12079 | 19.02226 | 15390 ft | 364 kts | 174° |
| 2026-05-04 11:52 | 47.09547 | 19.02549 | 16063 ft | 366 kts | 174° |
| 2026-05-04 11:52 | 47.06994 | 19.02879 | 16608 ft | 371 kts | 174° |
| 2026-05-04 11:52 | 47.04404 | 19.03196 | 17141 ft | 376 kts | 175° |
| 2026-05-04 11:53 | 47.01783 | 19.03499 | 17703 ft | 380 kts | 175° |
| 2026-05-04 11:53 | 46.99140 | 19.03792 | 18300 ft | 383 kts | 174° |
| 2026-05-04 11:53 | 46.96466 | 19.04083 | 18807 ft | 387 kts | 175° |
| 2026-05-04 11:53 | 46.93773 | 19.04374 | 19299 ft | 390 kts | 174° |
| 2026-05-04 11:55 | 46.76481 | 19.16419 | 22545 ft | 411 kts | 146° |
| 2026-05-04 11:55 | 46.74064 | 19.18683 | 23002 ft | 415 kts | 146° |
| 2026-05-04 11:56 | 46.71613 | 19.20966 | 23306 ft | 422 kts | 146° |
| 2026-05-04 11:56 | 46.69154 | 19.23248 | 23700 ft | 425 kts | 147° |
| 2026-05-04 11:56 | 46.66670 | 19.25546 | 24216 ft | 424 kts | 146° |
| 2026-05-04 11:56 | 46.64166 | 19.27859 | 24551 ft | 427 kts | 147° |
| 2026-05-04 11:57 | 46.61650 | 19.30180 | 24957 ft | 429 kts | 147° |
| 2026-05-04 11:57 | 46.59123 | 19.32508 | 25305 ft | 432 kts | 147° |
| 2026-05-04 11:57 | 46.56574 | 19.34854 | 25647 ft | 435 kts | 146° |
| 2026-05-04 11:57 | 46.54010 | 19.37213 | 25955 ft | 438 kts | 146° |
| 2026-05-04 11:58 | 46.51429 | 19.39584 | 26277 ft | 441 kts | 146° |
| 2026-05-04 11:58 | 46.48830 | 19.41970 | 26613 ft | 443 kts | 146° |
| 2026-05-04 11:58 | 46.46217 | 19.44366 | 26960 ft | 445 kts | 146° |
| 2026-05-04 11:58 | 46.43593 | 19.46768 | 27288 ft | 447 kts | 146° |
| 2026-05-04 11:59 | 46.40955 | 19.49181 | 27577 ft | 450 kts | 146° |
| 2026-05-04 11:59 | 46.38301 | 19.51606 | 27873 ft | 452 kts | 146° |
| 2026-05-04 11:59 | 46.35627 | 19.54045 | 28174 ft | 455 kts | 146° |
| 2026-05-04 11:59 | 46.32944 | 19.56490 | 28469 ft | 457 kts | 146° |
| 2026-05-04 12:00 | 46.30246 | 19.58946 | 28758 ft | 460 kts | 146° |
| 2026-05-04 12:00 | 46.27530 | 19.61417 | 28998 ft | 463 kts | 146° |
| 2026-05-04 12:00 | 46.24796 | 19.63901 | 29265 ft | 465 kts | 146° |
| 2026-05-04 12:00 | 46.22051 | 19.66391 | 29545 ft | 467 kts | 146° |
| 2026-05-04 12:01 | 46.19295 | 19.68888 | 29812 ft | 469 kts | 146° |
| 2026-05-04 12:01 | 46.16457 | 19.71259 | 30072 ft | 472 kts | 151° |
| 2026-05-04 12:02 | 45.98636 | 19.83593 | 31671 ft | 474 kts | 153° |
| 2026-05-04 12:03 | 45.95670 | 19.85662 | 31963 ft | 474 kts | 153° |
| 2026-05-04 12:03 | 45.92708 | 19.87733 | 32264 ft | 473 kts | 153° |
| 2026-05-04 12:03 | 45.89746 | 19.89805 | 32519 ft | 473 kts | 153° |
| 2026-05-04 12:03 | 45.86790 | 19.91871 | 32764 ft | 473 kts | 153° |
| 2026-05-04 12:04 | 45.83831 | 19.93936 | 33018 ft | 473 kts | 153° |
| 2026-05-04 12:04 | 45.80863 | 19.96003 | 33274 ft | 473 kts | 153° |
| 2026-05-04 12:04 | 45.78901 | 19.97368 | 33428 ft | 473 kts | 153° |
| 2026-05-04 12:04 | 45.75937 | 19.99427 | 33677 ft | 473 kts | 153° |
| 2026-05-04 12:05 | 45.72972 | 20.01485 | 33919 ft | 474 kts | 153° |
| 2026-05-04 12:05 | 45.69035 | 20.04213 | 34131 ft | 476 kts | 153° |
| 2026-05-04 12:05 | 45.66055 | 20.06276 | 34323 ft | 476 kts | 153° |
| 2026-05-04 12:05 | 45.64043 | 20.07666 | 34495 ft | 475 kts | 153° |
| 2026-05-04 12:06 | 45.61070 | 20.09719 | 34773 ft | 473 kts | 153° |
| 2026-05-04 12:06 | 45.58114 | 20.11758 | 35034 ft | 471 kts | 153° |
| 2026-05-04 12:06 | 45.52188 | 20.15840 | 35121 ft | 475 kts | 153° |
| 2026-05-04 12:07 | 45.46247 | 20.19923 | 35118 ft | 472 kts | 153° |
| 2026-05-04 12:07 | 45.40344 | 20.23969 | 35123 ft | 469 kts | 153° |
| 2026-05-04 12:08 | 45.34514 | 20.27959 | 35118 ft | 467 kts | 153° |
| 2026-05-04 12:08 | 45.28663 | 20.31957 | 35122 ft | 466 kts | 153° |
| 2026-05-04 12:09 | 45.22811 | 20.35949 | 35129 ft | 467 kts | 153° |
| 2026-05-04 12:09 | 45.16940 | 20.39945 | 35127 ft | 469 kts | 153° |
| 2026-05-04 12:10 | 45.11032 | 20.43956 | 35138 ft | 472 kts | 153° |
| 2026-05-04 12:10 | 45.05094 | 20.47978 | 35127 ft | 474 kts | 153° |
| 2026-05-04 12:11 | 44.99130 | 20.52009 | 35133 ft | 476 kts | 153° |
| 2026-05-04 12:11 | 44.93139 | 20.56047 | 35131 ft | 478 kts | 153° |
| 2026-05-04 12:12 | 44.87126 | 20.60091 | 35143 ft | 479 kts | 153° |
| 2026-05-04 12:12 | 44.81111 | 20.64127 | 35132 ft | 479 kts | 153° |
| 2026-05-04 12:14 | 44.57248 | 20.80048 | 35151 ft | 472 kts | 152° |
| 2026-05-04 12:15 | 44.51315 | 20.83984 | 35137 ft | 472 kts | 152° |
| 2026-05-04 12:15 | 44.45385 | 20.87909 | 35139 ft | 471 kts | 152° |
| 2026-05-04 12:16 | 44.39454 | 20.91827 | 35129 ft | 472 kts | 153° |
| 2026-05-04 12:16 | 44.33514 | 20.95741 | 35144 ft | 472 kts | 153° |
| 2026-05-04 12:17 | 44.27557 | 20.99658 | 35146 ft | 475 kts | 152° |
| 2026-05-04 12:17 | 44.21568 | 21.03587 | 35147 ft | 476 kts | 153° |
| 2026-05-04 12:18 | 44.15555 | 21.07522 | 35126 ft | 478 kts | 153° |
| 2026-05-04 12:18 | 44.09530 | 21.11455 | 35144 ft | 479 kts | 153° |
| 2026-05-04 12:19 | 44.03480 | 21.15397 | 35144 ft | 480 kts | 153° |
| 2026-05-04 12:19 | 43.97422 | 21.19335 | 35140 ft | 481 kts | 153° |
| 2026-05-04 12:20 | 43.91366 | 21.23262 | 35127 ft | 480 kts | 153° |
| 2026-05-04 12:20 | 43.85330 | 21.27167 | 35130 ft | 478 kts | 153° |
| 2026-05-04 12:21 | 43.79345 | 21.31032 | 35127 ft | 477 kts | 153° |
| 2026-05-04 12:21 | 43.73336 | 21.34903 | 35149 ft | 475 kts | 152° |
| 2026-05-04 12:22 | 43.67345 | 21.38754 | 35129 ft | 475 kts | 153° |
| 2026-05-04 12:22 | 43.61360 | 21.42593 | 35130 ft | 474 kts | 153° |
| 2026-05-04 12:23 | 43.55380 | 21.46419 | 35131 ft | 473 kts | 153° |
| 2026-05-04 12:23 | 43.49409 | 21.50233 | 35126 ft | 473 kts | 153° |
| 2026-05-04 12:24 | 43.43423 | 21.54048 | 35134 ft | 475 kts | 152° |
| 2026-05-04 12:24 | 43.37425 | 21.57861 | 35132 ft | 475 kts | 152° |
| 2026-05-04 12:25 | 43.31411 | 21.61677 | 35129 ft | 476 kts | 152° |
| 2026-05-04 12:25 | 43.25392 | 21.65486 | 35125 ft | 476 kts | 153° |
| 2026-05-04 12:26 | 43.19369 | 21.69291 | 35129 ft | 477 kts | 153° |
| 2026-05-04 12:26 | 43.13340 | 21.73090 | 35128 ft | 477 kts | 153° |
| 2026-05-04 12:27 | 43.07304 | 21.76886 | 35118 ft | 478 kts | 153° |
| 2026-05-04 12:27 | 43.01261 | 21.80678 | 35126 ft | 478 kts | 153° |
| 2026-05-04 12:28 | 42.95209 | 21.84467 | 35121 ft | 479 kts | 153° |
| 2026-05-04 12:28 | 42.89142 | 21.88258 | 35136 ft | 480 kts | 153° |
| 2026-05-04 12:29 | 42.83054 | 21.92053 | 35127 ft | 481 kts | 153° |
| 2026-05-04 12:29 | 42.76965 | 21.95841 | 35118 ft | 482 kts | 153° |
| 2026-05-04 12:30 | 42.70873 | 21.99622 | 35125 ft | 481 kts | 153° |
| 2026-05-04 12:30 | 42.64816 | 22.03374 | 35121 ft | 481 kts | 153° |
| 2026-05-04 12:31 | 42.58732 | 22.07134 | 35119 ft | 481 kts | 153° |
| 2026-05-04 12:31 | 42.52644 | 22.10889 | 35122 ft | 480 kts | 153° |
| 2026-05-04 12:32 | 42.43523 | 22.16500 | 35104 ft | 479 kts | 153° |
| 2026-05-04 12:33 | 42.37456 | 22.20223 | 35103 ft | 478 kts | 153° |
| 2026-05-04 12:33 | 42.31411 | 22.23925 | 35109 ft | 476 kts | 153° |
| 2026-05-04 12:34 | 42.25333 | 22.27488 | 35106 ft | 476 kts | 155° |
| 2026-05-04 12:34 | 42.19222 | 22.30913 | 35102 ft | 475 kts | 155° |
| 2026-05-04 12:35 | 42.13117 | 22.34334 | 35092 ft | 475 kts | 155° |
| 2026-05-04 12:35 | 42.07059 | 22.37748 | 35096 ft | 476 kts | 155° |
| 2026-05-04 12:36 | 42.00948 | 22.41195 | 35106 ft | 477 kts | 155° |
| 2026-05-04 12:36 | 41.94819 | 22.44647 | 35103 ft | 478 kts | 155° |
| 2026-05-04 12:37 | 41.88675 | 22.48097 | 35104 ft | 479 kts | 155° |
| 2026-05-04 12:37 | 41.82530 | 22.51541 | 35103 ft | 478 kts | 155° |
| 2026-05-04 12:38 | 41.76391 | 22.54974 | 35093 ft | 477 kts | 155° |
| 2026-05-04 12:38 | 41.70270 | 22.58390 | 35090 ft | 476 kts | 155° |
| 2026-05-04 12:39 | 41.64171 | 22.61787 | 35092 ft | 474 kts | 156° |
| 2026-05-04 12:39 | 41.58078 | 22.65174 | 35092 ft | 473 kts | 156° |
| 2026-05-04 12:40 | 41.51999 | 22.68546 | 35090 ft | 473 kts | 156° |
| 2026-05-04 12:40 | 41.45924 | 22.71910 | 35091 ft | 473 kts | 156° |
| 2026-05-04 12:41 | 41.39837 | 22.75275 | 35098 ft | 474 kts | 156° |
| 2026-05-04 12:41 | 41.34098 | 22.79543 | 35129 ft | 473 kts | 144° |
| 2026-05-04 12:42 | 41.28661 | 22.84476 | 35103 ft | 473 kts | 143° |
| 2026-05-04 12:42 | 41.23213 | 22.89408 | 35096 ft | 474 kts | 144° |
| 2026-05-04 12:43 | 41.17735 | 22.94279 | 35097 ft | 474 kts | 144° |
| 2026-05-04 12:43 | 41.12245 | 22.99110 | 35100 ft | 473 kts | 144° |
| 2026-05-04 12:44 | 41.06759 | 23.03917 | 35096 ft | 472 kts | 144° |
| 2026-05-04 12:44 | 41.01281 | 23.08708 | 35101 ft | 472 kts | 144° |
| 2026-05-04 12:45 | 40.95805 | 23.13492 | 35123 ft | 471 kts | 144° |
| 2026-05-04 12:45 | 40.90339 | 23.18257 | 35107 ft | 470 kts | 145° |
| 2026-05-04 12:46 | 40.84888 | 23.23001 | 35103 ft | 468 kts | 145° |
| 2026-05-04 12:46 | 40.79448 | 23.27725 | 35090 ft | 467 kts | 145° |
| 2026-05-04 12:47 | 40.74019 | 23.32430 | 35108 ft | 467 kts | 145° |
| 2026-05-04 12:47 | 40.68591 | 23.37126 | 35105 ft | 467 kts | 145° |
| 2026-05-04 12:48 | 40.63149 | 23.41824 | 35112 ft | 469 kts | 145° |
| 2026-05-04 12:48 | 40.57724 | 23.46498 | 35097 ft | 468 kts | 145° |
| 2026-05-04 12:49 | 40.52265 | 23.51191 | 35096 ft | 466 kts | 145° |
| 2026-05-04 12:49 | 40.46849 | 23.55840 | 35116 ft | 470 kts | 145° |
| 2026-05-04 12:50 | 40.41351 | 23.60550 | 35107 ft | 473 kts | 145° |
| 2026-05-04 12:50 | 40.35822 | 23.65275 | 35109 ft | 475 kts | 145° |
| 2026-05-04 12:51 | 40.30290 | 23.69994 | 35101 ft | 474 kts | 145° |
| 2026-05-04 12:51 | 40.24765 | 23.74698 | 35105 ft | 473 kts | 145° |
| 2026-05-04 12:52 | 40.19320 | 23.79322 | 35099 ft | 459 kts | 145° |
| 2026-05-04 12:52 | 40.13995 | 23.83838 | 35099 ft | 455 kts | 145° |
| 2026-05-04 12:53 | 40.09579 | 23.87578 | 35104 ft | 454 kts | 145° |
| 2026-05-04 12:53 | 40.03365 | 23.92831 | 35108 ft | 459 kts | 145° |
| 2026-05-04 12:54 | 39.98875 | 23.96619 | 35114 ft | 466 kts | 146° |
| 2026-05-04 12:54 | 39.93399 | 24.01230 | 35107 ft | 469 kts | 146° |
| 2026-05-04 12:55 | 39.87904 | 24.05847 | 35104 ft | 470 kts | 146° |
| 2026-05-04 12:55 | 39.82441 | 24.10426 | 35105 ft | 461 kts | 146° |
| 2026-05-04 12:56 | 39.77082 | 24.14912 | 35106 ft | 459 kts | 146° |
| 2026-05-04 12:56 | 39.71683 | 24.19424 | 35118 ft | 463 kts | 146° |
| 2026-05-04 12:57 | 39.66233 | 24.23970 | 35125 ft | 468 kts | 146° |
| 2026-05-04 12:57 | 39.60741 | 24.28541 | 35123 ft | 471 kts | 146° |
| 2026-05-04 12:58 | 39.55214 | 24.33132 | 35110 ft | 472 kts | 146° |
| 2026-05-04 12:58 | 39.49707 | 24.37698 | 35117 ft | 473 kts | 146° |
| 2026-05-04 12:59 | 39.44159 | 24.42289 | 35119 ft | 474 kts | 146° |
| 2026-05-04 12:59 | 39.38613 | 24.46870 | 35109 ft | 473 kts | 146° |
| 2026-05-04 13:00 | 39.33077 | 24.51434 | 35109 ft | 471 kts | 146° |
| 2026-05-04 13:00 | 39.27572 | 24.55964 | 35105 ft | 468 kts | 146° |
| 2026-05-04 13:01 | 39.22065 | 24.60487 | 35121 ft | 470 kts | 146° |
| 2026-05-04 13:01 | 39.16529 | 24.65025 | 35114 ft | 472 kts | 146° |
| 2026-05-04 13:02 | 39.10979 | 24.69567 | 35106 ft | 473 kts | 146° |
| 2026-05-04 13:02 | 39.05408 | 24.74116 | 35107 ft | 474 kts | 146° |
| 2026-05-04 13:03 | 38.99831 | 24.78662 | 35111 ft | 475 kts | 147° |
| 2026-05-04 13:03 | 38.94240 | 24.83210 | 35110 ft | 476 kts | 147° |
| 2026-05-04 13:04 | 38.88640 | 24.87757 | 35104 ft | 477 kts | 147° |
| 2026-05-04 13:04 | 38.83029 | 24.92305 | 35104 ft | 477 kts | 147° |
| 2026-05-04 13:05 | 38.77413 | 24.96848 | 35091 ft | 478 kts | 147° |
| 2026-05-04 13:05 | 38.71793 | 25.01386 | 35128 ft | 478 kts | 147° |
| 2026-05-04 13:06 | 38.66163 | 25.05923 | 35109 ft | 478 kts | 147° |
| 2026-05-04 13:06 | 38.60528 | 25.10456 | 35102 ft | 478 kts | 147° |
| 2026-05-04 13:07 | 38.54930 | 25.14950 | 35101 ft | 478 kts | 147° |
| 2026-05-04 13:07 | 38.49296 | 25.19465 | 35097 ft | 478 kts | 147° |
| 2026-05-04 13:08 | 38.43659 | 25.23974 | 35104 ft | 478 kts | 147° |
| 2026-05-04 13:08 | 38.38021 | 25.28475 | 35101 ft | 478 kts | 147° |
| 2026-05-04 13:09 | 38.32382 | 25.32969 | 35104 ft | 479 kts | 147° |
| 2026-05-04 13:09 | 38.26731 | 25.37464 | 35093 ft | 479 kts | 147° |
| 2026-05-04 13:10 | 38.21077 | 25.41953 | 35099 ft | 479 kts | 147° |
| 2026-05-04 13:10 | 38.15419 | 25.46437 | 35096 ft | 479 kts | 147° |
| 2026-05-04 13:11 | 38.09750 | 25.50921 | 35094 ft | 480 kts | 147° |
| 2026-05-04 13:11 | 38.04079 | 25.55398 | 35092 ft | 480 kts | 147° |
| 2026-05-04 13:12 | 37.98401 | 25.59873 | 35074 ft | 481 kts | 148° |
| 2026-05-04 13:12 | 37.92717 | 25.64345 | 35102 ft | 481 kts | 148° |
| 2026-05-04 13:13 | 37.87016 | 25.68821 | 35090 ft | 482 kts | 148° |
| 2026-05-04 13:13 | 37.81308 | 25.73295 | 35084 ft | 483 kts | 148° |
| 2026-05-04 13:14 | 37.75594 | 25.77764 | 35083 ft | 483 kts | 148° |
| 2026-05-04 13:14 | 37.69879 | 25.82227 | 35080 ft | 483 kts | 148° |
| 2026-05-04 13:15 | 37.64163 | 25.86682 | 35084 ft | 483 kts | 148° |
| 2026-05-04 13:15 | 37.58444 | 25.91131 | 35078 ft | 482 kts | 148° |
| 2026-05-04 13:16 | 37.52734 | 25.95565 | 35086 ft | 482 kts | 148° |
| 2026-05-04 13:16 | 37.47030 | 25.99987 | 35074 ft | 482 kts | 148° |
| 2026-05-04 13:17 | 37.41365 | 26.04370 | 35074 ft | 481 kts | 148° |
| 2026-05-04 13:17 | 37.35658 | 26.08778 | 35074 ft | 481 kts | 148° |
| 2026-05-04 13:18 | 37.29958 | 26.13172 | 35074 ft | 481 kts | 148° |
| 2026-05-04 13:18 | 37.24257 | 26.17560 | 35061 ft | 481 kts | 148° |
| 2026-05-04 13:19 | 37.18550 | 26.21944 | 35057 ft | 481 kts | 149° |
| 2026-05-04 13:19 | 37.12838 | 26.26324 | 35081 ft | 482 kts | 149° |
| 2026-05-04 13:20 | 37.07112 | 26.30707 | 35065 ft | 483 kts | 149° |
| 2026-05-04 13:20 | 37.01373 | 26.35092 | 35063 ft | 483 kts | 149° |
| 2026-05-04 13:21 | 36.95630 | 26.39473 | 35050 ft | 484 kts | 149° |
| 2026-05-04 13:21 | 36.89878 | 26.43852 | 35057 ft | 484 kts | 149° |
| 2026-05-04 13:22 | 36.84120 | 26.48228 | 35053 ft | 485 kts | 149° |
| 2026-05-04 13:22 | 36.78357 | 26.52600 | 35053 ft | 485 kts | 149° |
| 2026-05-04 13:23 | 36.72589 | 26.56968 | 35061 ft | 485 kts | 149° |
| 2026-05-04 13:23 | 36.66848 | 26.61307 | 35038 ft | 486 kts | 150° |
| 2026-05-04 13:24 | 36.61070 | 26.65667 | 35045 ft | 486 kts | 150° |
| 2026-05-04 13:24 | 36.55289 | 26.70022 | 35043 ft | 486 kts | 150° |
| 2026-05-04 13:25 | 36.46606 | 26.76548 | 35038 ft | 486 kts | 150° |
| 2026-05-04 13:25 | 36.40818 | 26.80889 | 35020 ft | 487 kts | 150° |
| 2026-05-04 13:26 | 36.35017 | 26.85231 | 35039 ft | 487 kts | 150° |
| 2026-05-04 13:26 | 36.29204 | 26.89576 | 35045 ft | 488 kts | 150° |
| 2026-05-04 13:27 | 36.23374 | 26.93924 | 35040 ft | 489 kts | 150° |
| 2026-05-04 13:27 | 36.17542 | 26.98268 | 35034 ft | 490 kts | 150° |
| 2026-05-04 13:28 | 36.11697 | 27.02613 | 35020 ft | 490 kts | 151° |
| 2026-05-04 13:28 | 36.05845 | 27.06955 | 35033 ft | 491 kts | 151° |
| 2026-05-04 13:29 | 35.99974 | 27.11304 | 35037 ft | 493 kts | 151° |
| 2026-05-04 13:29 | 35.94081 | 27.15661 | 35028 ft | 495 kts | 151° |
| 2026-05-04 13:30 | 35.88170 | 27.20025 | 35028 ft | 495 kts | 151° |
| 2026-05-04 13:30 | 35.82247 | 27.24389 | 35015 ft | 496 kts | 152° |
| 2026-05-04 13:31 | 35.76322 | 27.28747 | 35027 ft | 497 kts | 152° |
| 2026-05-04 13:31 | 35.70419 | 27.33082 | 35025 ft | 497 kts | 152° |
| 2026-05-04 13:32 | 35.64474 | 27.37440 | 35016 ft | 498 kts | 152° |
| 2026-05-04 13:32 | 35.58519 | 27.41797 | 35000 ft | 498 kts | 152° |
| 2026-05-04 13:33 | 35.52569 | 27.46144 | 35019 ft | 498 kts | 152° |
| 2026-05-04 13:33 | 35.46616 | 27.50484 | 35021 ft | 497 kts | 152° |
| 2026-05-04 13:34 | 35.40671 | 27.54812 | 35013 ft | 497 kts | 152° |
| 2026-05-04 13:34 | 35.34725 | 27.59132 | 35016 ft | 496 kts | 152° |
| 2026-05-04 13:35 | 35.25833 | 27.65581 | 34999 ft | 495 kts | 154° |
| 2026-05-04 13:36 | 35.19914 | 27.69863 | 35008 ft | 494 kts | 154° |
| 2026-05-04 13:36 | 35.13992 | 27.74139 | 35011 ft | 494 kts | 154° |
| 2026-05-04 13:37 | 35.08069 | 27.78410 | 35015 ft | 494 kts | 154° |
| 2026-05-04 13:37 | 35.02147 | 27.82672 | 35016 ft | 495 kts | 154° |
| 2026-05-04 13:38 | 34.96213 | 27.86936 | 35013 ft | 495 kts | 154° |
| 2026-05-04 13:38 | 34.90278 | 27.91194 | 35012 ft | 495 kts | 154° |
| 2026-05-04 13:39 | 34.84334 | 27.95451 | 35008 ft | 496 kts | 154° |
| 2026-05-04 13:39 | 34.78384 | 27.99705 | 34976 ft | 496 kts | 154° |
| 2026-05-04 13:40 | 34.72433 | 28.03952 | 35011 ft | 496 kts | 155° |
| 2026-05-04 13:40 | 34.66512 | 28.08170 | 35032 ft | 497 kts | 155° |
| 2026-05-04 13:41 | 34.60541 | 28.12417 | 35016 ft | 498 kts | 155° |
| 2026-05-04 13:41 | 34.54555 | 28.16668 | 35016 ft | 499 kts | 155° |
| 2026-05-04 13:42 | 34.45573 | 28.23035 | 35009 ft | 499 kts | 155° |
| 2026-05-04 13:42 | 34.40587 | 28.26561 | 35011 ft | 499 kts | 155° |
| 2026-05-04 13:43 | 34.34542 | 28.30829 | 35016 ft | 500 kts | 155° |
| 2026-05-04 13:43 | 34.28571 | 28.35039 | 35014 ft | 501 kts | 155° |
| 2026-05-04 13:44 | 34.22549 | 28.39276 | 34988 ft | 501 kts | 156° |
| 2026-05-04 13:44 | 34.16524 | 28.43511 | 35009 ft | 501 kts | 156° |
| 2026-05-04 13:45 | 34.10496 | 28.47739 | 35020 ft | 501 kts | 156° |
| 2026-05-04 13:45 | 34.04463 | 28.51964 | 35019 ft | 502 kts | 156° |
| 2026-05-04 13:46 | 33.98424 | 28.56187 | 35022 ft | 502 kts | 156° |
| 2026-05-04 13:46 | 33.92385 | 28.60402 | 35004 ft | 501 kts | 156° |
| 2026-05-04 13:47 | 33.86345 | 28.64612 | 35016 ft | 501 kts | 156° |
| 2026-05-04 13:47 | 33.80310 | 28.68811 | 35028 ft | 501 kts | 157° |
| 2026-05-04 13:48 | 33.74275 | 28.73004 | 35026 ft | 501 kts | 157° |
| 2026-05-04 13:48 | 33.68566 | 28.77913 | 35025 ft | 512 kts | 142° |
| 2026-05-04 13:49 | 33.63391 | 28.83809 | 35017 ft | 512 kts | 141° |
| 2026-05-04 13:49 | 33.58255 | 28.89707 | 35020 ft | 511 kts | 141° |
| 2026-05-04 13:50 | 33.53094 | 28.95536 | 35030 ft | 509 kts | 142° |
| 2026-05-04 13:50 | 33.47917 | 29.01321 | 35032 ft | 508 kts | 142° |
| 2026-05-04 13:51 | 33.42750 | 29.07077 | 35024 ft | 507 kts | 142° |
| 2026-05-04 13:51 | 33.37591 | 29.12817 | 35032 ft | 506 kts | 142° |
| 2026-05-04 13:52 | 33.29896 | 29.21368 | 35023 ft | 504 kts | 143° |
| 2026-05-04 13:53 | 33.24757 | 29.27068 | 35033 ft | 504 kts | 143° |
| 2026-05-04 13:53 | 33.19619 | 29.32755 | 35032 ft | 504 kts | 143° |
| 2026-05-04 13:54 | 33.11907 | 29.41274 | 35037 ft | 503 kts | 143° |
| 2026-05-04 13:55 | 33.04189 | 29.49778 | 35033 ft | 504 kts | 143° |
| 2026-05-04 13:55 | 32.96467 | 29.58267 | 35037 ft | 503 kts | 144° |
| 2026-05-04 13:56 | 32.91316 | 29.63917 | 35031 ft | 504 kts | 144° |
| 2026-05-04 13:57 | 32.83577 | 29.72388 | 35037 ft | 504 kts | 144° |
| 2026-05-04 13:58 | 32.73229 | 29.83683 | 35035 ft | 505 kts | 144° |
| 2026-05-04 13:58 | 32.65461 | 29.92140 | 35021 ft | 504 kts | 144° |
| 2026-05-04 13:59 | 32.60296 | 29.97750 | 35031 ft | 503 kts | 144° |
| 2026-05-04 14:00 | 32.52568 | 30.06130 | 35033 ft | 501 kts | 144° |
| 2026-05-04 14:00 | 32.44851 | 30.14470 | 35048 ft | 499 kts | 145° |
| 2026-05-04 14:01 | 32.39718 | 30.20000 | 35045 ft | 499 kts | 145° |
| 2026-05-04 14:02 | 32.32066 | 30.28233 | 35038 ft | 496 kts | 145° |
| 2026-05-04 14:02 | 32.26966 | 30.33710 | 35036 ft | 495 kts | 145° |
| 2026-05-04 14:03 | 32.21876 | 30.39169 | 35045 ft | 494 kts | 145° |
| 2026-05-04 14:03 | 32.16796 | 30.44607 | 35043 ft | 492 kts | 145° |
| 2026-05-04 14:04 | 32.09189 | 30.52734 | 35046 ft | 491 kts | 145° |
| 2026-05-04 14:04 | 32.04120 | 30.58139 | 35051 ft | 490 kts | 145° |
| 2026-05-04 14:05 | 31.96528 | 30.66219 | 35051 ft | 490 kts | 145° |
| 2026-05-04 14:06 | 31.91463 | 30.71598 | 34920 ft | 492 kts | 145° |
| 2026-05-04 14:06 | 31.88921 | 30.74295 | 34558 ft | 490 kts | 145° |
| 2026-05-04 14:06 | 31.86408 | 30.76964 | 34177 ft | 485 kts | 145° |
| 2026-05-04 14:06 | 31.83910 | 30.79614 | 33749 ft | 482 kts | 146° |
| 2026-05-04 14:07 | 31.81430 | 30.82242 | 33306 ft | 478 kts | 146° |
| 2026-05-04 14:07 | 31.78970 | 30.84845 | 32878 ft | 474 kts | 146° |
| 2026-05-04 14:07 | 31.76527 | 30.87427 | 32486 ft | 471 kts | 146° |
| 2026-05-04 14:07 | 31.74101 | 30.89990 | 32081 ft | 467 kts | 146° |
| 2026-05-04 14:08 | 31.71721 | 30.92501 | 31704 ft | 464 kts | 146° |
| 2026-05-04 14:08 | 31.69325 | 30.95027 | 31293 ft | 461 kts | 146° |
| 2026-05-04 14:08 | 31.66947 | 30.97534 | 30901 ft | 458 kts | 146° |
| 2026-05-04 14:08 | 31.64585 | 31.00021 | 30537 ft | 454 kts | 146° |
| 2026-05-04 14:09 | 31.59910 | 31.04939 | 29735 ft | 449 kts | 146° |
| 2026-05-04 14:09 | 31.57564 | 31.07405 | 29315 ft | 445 kts | 146° |
| 2026-05-04 14:10 | 31.52730 | 31.11506 | 28563 ft | 416 kts | 165° |
| 2026-05-04 14:10 | 31.50089 | 31.12727 | 28164 ft | 402 kts | 174° |
| 2026-05-04 14:10 | 31.47419 | 31.13408 | 27779 ft | 386 kts | 183° |
| 2026-05-04 14:10 | 31.44780 | 31.13869 | 27416 ft | 382 kts | 183° |
| 2026-05-04 14:11 | 31.42158 | 31.14322 | 27041 ft | 379 kts | 183° |
| 2026-05-04 14:11 | 31.36971 | 31.15244 | 26297 ft | 374 kts | 183° |
| 2026-05-04 14:11 | 31.34406 | 31.15710 | 25950 ft | 372 kts | 183° |
| 2026-05-04 14:12 | 31.31858 | 31.16177 | 25597 ft | 370 kts | 183° |
| 2026-05-04 14:12 | 31.29324 | 31.16642 | 25250 ft | 368 kts | 183° |
| 2026-05-04 14:12 | 31.24295 | 31.17566 | 24532 ft | 364 kts | 183° |
| 2026-05-04 14:13 | 31.21792 | 31.18030 | 24172 ft | 363 kts | 183° |
| 2026-05-04 14:13 | 31.19297 | 31.18496 | 23808 ft | 363 kts | 183° |
| 2026-05-04 14:13 | 31.16804 | 31.18963 | 23398 ft | 362 kts | 183° |
| 2026-05-04 14:13 | 31.14324 | 31.19428 | 22958 ft | 360 kts | 182° |
| 2026-05-04 14:14 | 31.11861 | 31.19891 | 22619 ft | 357 kts | 182° |
| 2026-05-04 14:14 | 31.06990 | 31.20804 | 21914 ft | 352 kts | 182° |
| 2026-05-04 14:14 | 31.04579 | 31.21255 | 21573 ft | 350 kts | 182° |
| 2026-05-04 14:15 | 30.99798 | 31.22146 | 20888 ft | 346 kts | 182° |
| 2026-05-04 14:15 | 30.95067 | 31.23026 | 20202 ft | 343 kts | 182° |
| 2026-05-04 14:16 | 30.90373 | 31.23898 | 19531 ft | 340 kts | 182° |
| 2026-05-04 14:16 | 30.88039 | 31.24331 | 19161 ft | 339 kts | 181° |
| 2026-05-04 14:17 | 30.83397 | 31.25194 | 18510 ft | 336 kts | 181° |
| 2026-05-04 14:17 | 30.81116 | 31.25618 | 18148 ft | 335 kts | 181° |
| 2026-05-04 14:17 | 30.76530 | 31.26468 | 17436 ft | 332 kts | 181° |
| 2026-05-04 14:18 | 30.74251 | 31.26891 | 17084 ft | 330 kts | 181° |
| 2026-05-04 14:18 | 30.69735 | 31.27728 | 16414 ft | 327 kts | 181° |
| 2026-05-04 14:19 | 30.65259 | 31.28556 | 15755 ft | 324 kts | 180° |
| 2026-05-04 14:19 | 30.63038 | 31.28967 | 15416 ft | 323 kts | 180° |
| 2026-05-04 14:19 | 30.60826 | 31.29375 | 15098 ft | 321 kts | 180° |
| 2026-05-04 14:19 | 30.58624 | 31.29782 | 14776 ft | 320 kts | 180° |
| 2026-05-04 14:20 | 30.56428 | 31.30187 | 14449 ft | 319 kts | 180° |
| 2026-05-04 14:20 | 30.54237 | 31.30591 | 14119 ft | 319 kts | 180° |
| 2026-05-04 14:20 | 30.52050 | 31.30995 | 13785 ft | 318 kts | 179° |
| 2026-05-04 14:21 | 30.47688 | 31.31799 | 13085 ft | 316 kts | 179° |
| 2026-05-04 14:21 | 30.45514 | 31.32199 | 12573 ft | 320 kts | 179° |
| 2026-05-04 14:21 | 30.43292 | 31.32600 | 12085 ft | 324 kts | 178° |
| 2026-05-04 14:21 | 30.41058 | 31.33007 | 11686 ft | 324 kts | 178° |
| 2026-05-04 14:22 | 30.38837 | 31.33413 | 11325 ft | 323 kts | 177° |
| 2026-05-04 14:22 | 30.36624 | 31.33817 | 10997 ft | 321 kts | 177° |
| 2026-05-04 14:22 | 30.34426 | 31.34218 | 10671 ft | 319 kts | 176° |
| 2026-05-04 14:22 | 30.32243 | 31.34616 | 10387 ft | 316 kts | 176° |
| 2026-05-04 14:23 | 30.27995 | 31.35393 | 10075 ft | 301 kts | 176° |
| 2026-05-04 14:23 | 30.27325 | 31.35514 | 9997 ft | 300 kts | 176° |
| 2026-05-04 14:23 | 30.24580 | 31.36012 | 9598 ft | 297 kts | 176° |
| 2026-05-04 14:24 | 30.22545 | 31.36381 | 9307 ft | 295 kts | 176° |
| 2026-05-04 14:24 | 30.20531 | 31.36746 | 9034 ft | 292 kts | 176° |
| 2026-05-04 14:24 | 30.17870 | 31.37228 | 8671 ft | 289 kts | 175° |
| 2026-05-04 14:24 | 30.15893 | 31.37619 | 8402 ft | 288 kts | 169° |
| 2026-05-04 14:25 | 30.14124 | 31.38710 | 8136 ft | 292 kts | 138° |
| 2026-05-04 14:25 | 30.12712 | 31.42949 | 7374 ft | 295 kts | 79° |
| 2026-05-04 14:25 | 30.13360 | 31.45152 | 7049 ft | 289 kts | 55° |
| 2026-05-04 14:26 | 30.14521 | 31.47021 | 6769 ft | 285 kts | 49° |
| 2026-05-04 14:26 | 30.15737 | 31.48820 | 6476 ft | 282 kts | 47° |
| 2026-05-04 14:26 | 30.16934 | 31.50587 | 6170 ft | 276 kts | 49° |
| 2026-05-04 14:26 | 30.18093 | 31.52317 | 5896 ft | 273 kts | 48° |
| 2026-05-04 14:27 | 30.19244 | 31.54051 | 5635 ft | 270 kts | 49° |
| 2026-05-04 14:27 | 30.20381 | 31.55773 | 5370 ft | 269 kts | 49° |
| 2026-05-04 14:27 | 30.21510 | 31.57488 | 5094 ft | 267 kts | 49° |
| 2026-05-04 14:27 | 30.22615 | 31.59208 | 4848 ft | 266 kts | 54° |
| 2026-05-04 14:28 | 30.23163 | 31.61250 | 4567 ft | 272 kts | 89° |
| 2026-05-04 14:28 | 30.22734 | 31.63358 | 4296 ft | 273 kts | 119° |
| 2026-05-04 14:28 | 30.21985 | 31.64497 | 4165 ft | 268 kts | 139° |
| 2026-05-04 14:28 | 30.20411 | 31.65523 | 4036 ft | 255 kts | 169° |
| 2026-05-04 14:29 | 30.16831 | 31.64536 | 3780 ft | 219 kts | 227° |
| 2026-05-04 14:29 | 30.16373 | 31.61491 | 3481 ft | 207 kts | 287° |
| 2026-05-04 14:30 | 30.16703 | 31.59844 | 3246 ft | 211 kts | 282° |
| 2026-05-04 14:30 | 30.16869 | 31.58726 | 3098 ft | 207 kts | 279° |
| 2026-05-04 14:30 | 30.17238 | 31.55615 | 2927 ft | 179 kts | 280° |
| 2026-05-04 14:31 | 30.17458 | 31.54258 | 2892 ft | 169 kts | 290° |
| 2026-05-04 14:31 | 30.17246 | 31.51749 | 2763 ft | 178 kts | 229° |
| 2026-05-04 14:32 | 30.15506 | 31.49749 | 2130 ft | 164 kts | 233° |
| 2026-05-04 14:32 | 30.14785 | 31.48741 | 1688 ft | 159 kts | 237° |
| 2026-05-04 14:32 | 30.14094 | 31.47760 | 1211 ft | 157 kts | 237° |
| 2026-05-04 14:32 | 30.13407 | 31.46831 | 931 ft | 150 kts | 235° |
| 2026-05-04 14:33 | 30.12719 | 31.45936 | 694 ft | 150 kts | 239° |
| 2026-05-04 14:33 | 30.12036 | 31.45005 | 429 ft | 154 kts | 236° |
| 2026-05-04 14:33 | 30.11370 | 31.44100 | 369 ft | 136 kts | 230° |
| 2026-05-04 14:33 | 30.10920 | 31.43503 | 372 ft | 66 kts | 230° |
| 2026-05-04 14:34 | 30.10643 | 31.43132 | 371 ft | 51 kts | 230° |
| 2026-05-04 14:34 | 30.10500 | 31.42804 | 373 ft | 28 kts | 254° |
| 2026-05-04 14:34 | 30.10479 | 31.42716 | 373 ft | 9 kts | 256° |
| 2026-05-04 14:34 | 30.10471 | 31.42680 | 373 ft | 0 kts | 255° |
| 2026-05-04 14:36 | 30.10463 | 31.42645 | 373 ft | 9 kts | 256° |
| 2026-05-04 14:36 | 30.10427 | 31.42550 | 373 ft | 17 kts | 233° |
| 2026-05-04 14:36 | 30.10341 | 31.42434 | 374 ft | 21 kts | 229° |
| 2026-05-04 14:36 | 30.10244 | 31.42306 | 374 ft | 21 kts | 230° |
| 2026-05-04 14:37 | 30.10151 | 31.42181 | 374 ft | 20 kts | 230° |
| 2026-05-04 14:37 | 30.10061 | 31.42061 | 373 ft | 20 kts | 228° |
| 2026-05-04 14:37 | 30.09972 | 31.41945 | 373 ft | 19 kts | 229° |
| 2026-05-04 14:37 | 30.09891 | 31.41829 | 373 ft | 18 kts | 242° |
| 2026-05-04 14:38 | 30.09923 | 31.41697 | 373 ft | 18 kts | 283° |
| 2026-05-04 14:38 | 30.09908 | 31.41560 | 373 ft | 17 kts | 258° |
| 2026-05-04 14:38 | 30.09885 | 31.41430 | 373 ft | 16 kts | 259° |
| 2026-05-04 14:38 | 30.09865 | 31.41301 | 373 ft | 16 kts | 260° |
| 2026-05-04 14:39 | 30.09844 | 31.41180 | 373 ft | 15 kts | 259° |
| 2026-05-04 14:39 | 30.09823 | 31.41061 | 373 ft | 15 kts | 258° |
| 2026-05-04 14:39 | 30.09799 | 31.40918 | 373 ft | 23 kts | 259° |
| 2026-05-04 14:40 | 30.09918 | 31.40628 | 373 ft | 22 kts | 319° |
| 2026-05-04 14:40 | 30.10032 | 31.40515 | 373 ft | 21 kts | 320° |
| 2026-05-04 14:40 | 30.10109 | 31.40439 | 373 ft | 6 kts | 319° |
| 2026-05-04 14:40 | 30.10139 | 31.40409 | 373 ft | 6 kts | 319° |
| 2026-05-04 14:41 | 30.10189 | 31.40360 | 373 ft | 17 kts | 319° |
| 2026-05-04 14:41 | 30.10302 | 31.40249 | 373 ft | 22 kts | 320° |
| 2026-05-04 14:41 | 30.10392 | 31.40160 | 373 ft | 1 kts | 319° |
| 2026-05-04 14:42 | 30.10402 | 31.40150 | 374 ft | 1 kts | 319° |
| 2026-05-04 14:42 | 30.10427 | 31.40117 | 374 ft | 11 kts | 299° |
| 2026-05-04 14:42 | 30.10412 | 31.40019 | 373 ft | 14 kts | 228° |
| 2026-05-04 14:43 | 30.10350 | 31.39938 | 373 ft | 13 kts | 229° |
| 2026-05-04 14:43 | 30.10291 | 31.39859 | 373 ft | 13 kts | 230° |
| 2026-05-04 14:43 | 30.10234 | 31.39782 | 373 ft | 12 kts | 228° |
| 2026-05-04 14:43 | 30.10177 | 31.39708 | 373 ft | 12 kts | 229° |
| 2026-05-04 14:44 | 30.10129 | 31.39630 | 373 ft | 12 kts | 255° |
| 2026-05-04 14:44 | 30.10171 | 31.39571 | 373 ft | 12 kts | 2° |
| 2026-05-04 14:44 | 30.10234 | 31.39624 | 373 ft | 11 kts | 47° |
| 2026-05-04 14:44 | 30.10283 | 31.39693 | 373 ft | 11 kts | 50° |
| 2026-05-04 14:45 | 30.10332 | 31.39759 | 373 ft | 11 kts | 49° |
| 2026-05-04 14:45 | 30.10386 | 31.39830 | 373 ft | 12 kts | 48° |
| 2026-05-04 14:45 | 30.10454 | 31.39880 | 373 ft | 12 kts | 2° |
| 2026-05-04 14:45 | 30.10533 | 31.39856 | 373 ft | 12 kts | 343° |
| 2026-05-04 14:46 | 30.10609 | 31.39831 | 373 ft | 12 kts | 345° |
| 2026-05-04 14:46 | 30.10693 | 31.39807 | 373 ft | 12 kts | 347° |
| 2026-05-04 14:46 | 30.10776 | 31.39784 | 373 ft | 12 kts | 346° |
| 2026-05-04 14:46 | 30.10856 | 31.39761 | 373 ft | 12 kts | 345° |
| 2026-05-04 14:47 | 30.10909 | 31.39792 | 373 ft | 10 kts | 74° |
| 2026-05-04 14:47 | 30.10920 | 31.39839 | 373 ft | 1 kts | 75° |
| 2026-05-04 14:47 | 30.10921 | 31.39840 | 373 ft | 0 kts | 75° |